createdAt,value
2018-12-10T00:00:40.519Z,92.20
2018-12-10T00:03:17.047Z,92.00
2018-12-10T00:05:48.522Z,92.00
2018-12-10T00:08:18.211Z,91.70
2018-12-10T00:10:47.555Z,91.20
2018-12-10T00:13:18.061Z,91.30
2018-12-10T00:15:47.892Z,91.50
2018-12-10T00:18:17.545Z,91.50
2018-12-10T00:20:47.051Z,91.20
2018-12-10T00:23:16.683Z,91.10
2018-12-10T00:25:46.181Z,91.40
2018-12-10T00:28:15.629Z,91.10
2018-12-10T00:30:45.128Z,91.10
2018-12-10T00:33:14.424Z,90.90
2018-12-10T00:35:44.145Z,91.20
2018-12-10T00:38:13.660Z,91.20
2018-12-10T00:40:43.258Z,91.20
2018-12-10T00:43:12.744Z,91.20
2018-12-10T00:45:42.355Z,91.20
2018-12-10T00:48:11.934Z,90.90
2018-12-10T00:50:41.578Z,91.00
2018-12-10T00:53:11.178Z,91.10
2018-12-10T00:55:41.120Z,91.10
2018-12-10T00:58:10.416Z,91.10
2018-12-10T01:00:39.883Z,90.90
2018-12-10T01:03:09.381Z,90.90
2018-12-10T01:05:38.943Z,90.70
2018-12-10T01:08:08.448Z,90.90
2018-12-10T01:10:38.113Z,91.10
2018-12-10T01:13:07.670Z,91.10
2018-12-10T01:15:37.153Z,90.80
2018-12-10T01:18:06.973Z,91.20
2018-12-10T01:20:36.663Z,91.40
2018-12-10T01:23:06.289Z,91.40
2018-12-10T01:25:35.619Z,91.50
2018-12-10T01:28:05.674Z,91.30
2018-12-10T01:30:35.708Z,91.60
2018-12-10T01:33:05.229Z,91.40
2018-12-10T01:35:35.163Z,91.80
2018-12-10T01:38:04.663Z,92.10
2018-12-10T01:40:34.274Z,91.90
2018-12-10T01:43:03.786Z,92.10
2018-12-10T01:45:33.388Z,92.10
2018-12-10T01:48:02.932Z,92.10
2018-12-10T01:50:32.534Z,92.50
2018-12-10T01:53:02.960Z,92.60
2018-12-10T01:59:41.168Z,92.60
2018-12-10T02:02:13.593Z,92.80
2018-12-10T02:04:43.119Z,93.00
2018-12-10T02:07:12.387Z,92.80
2018-12-10T02:09:41.796Z,92.80
2018-12-10T02:12:12.201Z,92.70
2018-12-10T02:14:41.419Z,92.80
2018-12-10T02:17:10.927Z,93.00
2018-12-10T02:19:41.411Z,93.00
2018-12-10T02:22:10.947Z,93.20
2018-12-10T02:24:40.267Z,93.20
2018-12-10T02:27:09.551Z,93.30
2018-12-10T02:29:39.007Z,93.90
2018-12-10T02:32:08.610Z,93.70
2018-12-10T02:34:37.932Z,93.50
2018-12-10T02:37:07.233Z,93.30
2018-12-10T02:39:36.478Z,93.30
2018-12-10T02:42:05.871Z,93.20
2018-12-10T02:44:35.267Z,93.00
2018-12-10T02:47:04.630Z,93.00
2018-12-10T02:49:34.108Z,93.10
2018-12-10T02:52:03.809Z,93.10
2018-12-10T02:54:33.307Z,93.10
2018-12-10T02:57:02.712Z,93.00
2018-12-10T02:59:32.058Z,93.20
2018-12-10T03:02:01.629Z,93.40
2018-12-10T03:04:36.130Z,93.10
2018-12-10T03:07:05.654Z,92.80
2018-12-10T03:09:35.006Z,92.50
2018-12-10T03:12:04.305Z,92.50
2018-12-10T03:14:33.614Z,92.80
2018-12-10T03:17:03.114Z,92.00
2018-12-10T03:19:32.470Z,92.10
2018-12-10T03:22:01.870Z,92.00
2018-12-10T03:24:31.439Z,92.00
2018-12-10T03:27:00.884Z,92.10
2018-12-10T03:29:31.422Z,92.30
2018-12-10T03:32:00.966Z,92.30
2018-12-10T03:34:30.709Z,92.20
2018-12-10T03:37:00.303Z,91.70
2018-12-10T03:39:29.679Z,91.60
2018-12-10T03:41:59.018Z,91.70
2018-12-10T03:44:28.627Z,91.90
2018-12-10T03:46:58.067Z,91.70
2018-12-10T03:49:27.463Z,91.50
2018-12-10T03:51:56.942Z,91.50
2018-12-10T03:54:26.210Z,91.90
2018-12-10T03:56:55.550Z,91.90
2018-12-10T03:59:24.877Z,91.50
2018-12-10T04:01:54.485Z,91.60
2018-12-10T04:04:23.958Z,91.90
2018-12-10T04:06:53.453Z,92.00
2018-12-10T04:09:22.828Z,92.10
2018-12-10T04:11:52.472Z,91.90
2018-12-10T04:14:21.883Z,91.90
2018-12-10T04:16:51.180Z,91.70
2018-12-10T04:19:20.451Z,91.20
2018-12-10T04:21:50.053Z,91.20
2018-12-10T04:24:19.318Z,91.30
2018-12-10T04:26:48.666Z,91.10
2018-12-10T04:29:18.338Z,91.20
2018-12-10T04:31:47.613Z,91.20
2018-12-10T04:34:16.999Z,91.40
2018-12-10T04:36:46.318Z,91.20
2018-12-10T04:39:15.668Z,91.20
2018-12-10T04:41:45.092Z,91.20
2018-12-10T04:44:14.743Z,91.20
2018-12-10T04:46:44.417Z,91.20
2018-12-10T04:49:13.975Z,91.30
2018-12-10T04:51:43.501Z,91.20
2018-12-10T04:54:13.042Z,91.40
2018-12-10T04:56:42.366Z,91.80
2018-12-10T04:59:11.821Z,91.70
2018-12-10T05:01:41.381Z,91.90
2018-12-10T05:04:11.735Z,91.40
2018-12-10T05:06:41.394Z,91.30
2018-12-10T05:09:11.081Z,91.10
2018-12-10T05:11:40.383Z,91.00
2018-12-10T05:14:09.652Z,91.80
2018-12-10T05:16:38.983Z,91.70
2018-12-10T05:19:08.632Z,91.50
2018-12-10T05:21:37.917Z,91.70
2018-12-10T05:24:07.326Z,91.50
2018-12-10T05:26:36.800Z,91.70
2018-12-10T05:29:06.072Z,91.80
2018-12-10T05:31:35.520Z,91.60
2018-12-10T05:34:05.060Z,91.80
2018-12-10T05:36:34.402Z,91.80
2018-12-10T05:39:04.830Z,91.70
2018-12-10T05:41:36.157Z,91.30
2018-12-10T05:44:05.531Z,91.30
2018-12-10T05:46:34.806Z,90.90
2018-12-10T05:49:04.234Z,91.10
2018-12-10T05:51:33.539Z,90.90
2018-12-10T05:54:02.935Z,90.40
2018-12-10T05:56:32.335Z,90.40
2018-12-10T05:59:01.811Z,90.40
2018-12-10T06:01:32.573Z,90.10
2018-12-10T06:04:02.110Z,88.80
2018-12-10T06:06:32.499Z,89.60
2018-12-10T06:09:01.849Z,89.80
2018-12-10T06:11:34.689Z,90.10
2018-12-10T06:14:04.377Z,90.00
2018-12-10T06:16:33.883Z,90.00
2018-12-10T06:19:03.193Z,90.10
2018-12-10T06:21:32.715Z,90.00
2018-12-10T06:24:02.539Z,90.10
2018-12-10T06:26:32.671Z,90.10
2018-12-10T06:29:02.456Z,90.60
2018-12-10T06:31:31.844Z,90.20
2018-12-10T06:34:01.231Z,90.10
2018-12-10T06:36:30.864Z,90.30
2018-12-10T06:39:00.262Z,89.70
2018-12-10T06:41:29.739Z,89.70
2018-12-10T06:43:59.189Z,89.50
2018-12-10T06:46:28.615Z,89.30
2018-12-10T06:48:58.097Z,89.90
2018-12-10T06:51:27.802Z,90.00
2018-12-10T06:53:57.089Z,90.00
2018-12-10T06:56:26.466Z,89.50
2018-12-10T06:58:55.848Z,89.80
2018-12-10T07:01:25.172Z,89.40
2018-12-10T07:03:55.182Z,89.80
2018-12-10T07:06:24.506Z,89.80
2018-12-10T07:08:54.286Z,90.30
2018-12-10T07:11:23.832Z,90.40
2018-12-10T07:13:53.478Z,90.90
2018-12-10T07:16:22.796Z,90.90
2018-12-10T07:18:52.611Z,90.80
2018-12-10T07:21:22.088Z,91.10
2018-12-10T07:23:51.504Z,91.00
2018-12-10T07:26:21.024Z,90.90
2018-12-10T07:28:50.360Z,90.80
2018-12-10T07:31:19.736Z,90.60
2018-12-10T07:33:49.115Z,90.70
2018-12-10T07:36:18.370Z,90.70
2018-12-10T07:38:47.816Z,91.00
2018-12-10T07:41:17.471Z,91.20
2018-12-10T07:43:47.003Z,91.20
2018-12-10T07:46:16.435Z,91.30
2018-12-10T07:48:45.943Z,91.30
2018-12-10T07:51:15.471Z,90.90
2018-12-10T07:53:44.964Z,91.00
2018-12-10T07:56:14.326Z,91.20
2018-12-10T07:58:43.609Z,91.00
2018-12-10T08:01:12.881Z,91.30
2018-12-10T08:03:42.310Z,91.60
2018-12-10T08:06:11.732Z,91.00
2018-12-10T08:08:40.998Z,91.00
2018-12-10T08:11:10.955Z,90.70
2018-12-10T08:13:40.352Z,90.80
2018-12-10T08:16:09.851Z,91.00
2018-12-10T08:18:39.193Z,90.80
2018-12-10T08:21:08.433Z,90.80
2018-12-10T08:23:37.829Z,90.70
2018-12-10T08:26:08.203Z,90.90
2018-12-10T08:28:37.759Z,90.90
2018-12-10T08:31:07.311Z,90.50
2018-12-10T08:33:36.747Z,90.60
2018-12-10T08:36:06.177Z,90.60
2018-12-10T08:38:35.719Z,90.60
2018-12-10T08:41:04.997Z,90.40
2018-12-10T08:43:34.375Z,90.40
2018-12-10T08:46:03.851Z,90.40
2018-12-10T08:48:33.261Z,90.30
2018-12-10T08:51:02.879Z,90.30
2018-12-10T08:53:32.365Z,90.00
2018-12-10T08:56:01.995Z,90.40
2018-12-10T08:58:32.405Z,90.80
2018-12-10T09:01:02.066Z,90.50
2018-12-10T09:03:33.357Z,90.60
2018-12-10T09:06:03.212Z,92.80
2018-12-10T09:08:33.153Z,92.20
2018-12-10T09:11:03.308Z,90.80
2018-12-10T09:13:32.672Z,90.50
2018-12-10T09:16:02.606Z,90.50
2018-12-10T09:18:32.713Z,90.70
2018-12-10T09:21:02.168Z,90.90
2018-12-10T09:23:31.579Z,91.00
2018-12-10T09:26:01.078Z,90.80
2018-12-10T09:28:30.749Z,90.70
2018-12-10T09:31:00.109Z,90.80
2018-12-10T09:33:29.634Z,91.00
2018-12-10T09:35:59.006Z,90.40
2018-12-10T09:38:28.607Z,90.00
2018-12-10T09:40:58.056Z,90.00
2018-12-10T09:43:27.530Z,88.70
2018-12-10T09:45:57.016Z,87.00
2018-12-10T09:48:26.486Z,86.50
2018-12-10T09:50:55.971Z,85.20
2018-12-10T09:53:25.331Z,84.70
2018-12-10T09:55:54.872Z,81.40
2018-12-10T09:58:24.360Z,81.40
2018-12-10T10:00:53.705Z,83.30
2018-12-10T10:03:23.390Z,81.10
2018-12-10T10:05:52.834Z,81.40
2018-12-10T10:08:23.296Z,83.00
2018-12-10T10:10:52.666Z,83.40
2018-12-10T10:13:22.092Z,82.10
2018-12-10T10:15:51.980Z,81.40
2018-12-10T10:18:21.616Z,81.20
2018-12-10T10:20:51.109Z,81.60
2018-12-10T10:23:20.374Z,81.70
2018-12-10T10:25:49.827Z,78.90
2018-12-10T10:28:19.360Z,79.40
2018-12-10T10:30:48.668Z,78.90
2018-12-10T10:33:17.933Z,79.50
2018-12-10T10:35:47.224Z,81.00
2018-12-10T10:38:16.705Z,80.20
2018-12-10T10:40:45.952Z,80.00
2018-12-10T10:43:15.278Z,78.90
2018-12-10T10:45:44.730Z,79.50
2018-12-10T10:48:14.120Z,79.80
2018-12-10T10:50:43.630Z,78.50
2018-12-10T10:53:13.238Z,78.80
2018-12-10T10:55:42.522Z,80.00
2018-12-10T10:58:11.812Z,80.70
2018-12-10T11:00:46.352Z,80.40
2018-12-10T11:03:21.172Z,79.80
2018-12-10T11:05:50.541Z,78.70
2018-12-10T11:08:20.387Z,79.50
2018-12-10T11:10:51.012Z,80.10
2018-12-10T11:13:20.670Z,79.70
2018-12-10T11:15:50.274Z,80.20
2018-12-10T11:18:19.756Z,80.10
2018-12-10T11:20:49.285Z,81.10
2018-12-10T11:23:18.694Z,80.10
2018-12-10T11:25:48.199Z,80.80
2018-12-10T11:28:17.478Z,80.30
2018-12-10T11:30:47.966Z,79.70
2018-12-10T11:33:17.355Z,78.80
2018-12-10T11:35:46.835Z,79.60
2018-12-10T11:38:16.271Z,80.00
2018-12-10T11:40:46.177Z,79.70
2018-12-10T11:43:15.529Z,78.60
2018-12-10T11:45:44.826Z,80.10
2018-12-10T11:48:14.329Z,79.50
2018-12-10T11:50:43.819Z,78.30
2018-12-10T11:53:13.294Z,78.60
2018-12-10T11:55:42.790Z,80.40
2018-12-10T11:58:12.112Z,77.50
2018-12-10T12:00:42.627Z,77.80
2018-12-10T12:03:12.014Z,78.80
2018-12-10T12:05:42.173Z,76.90
2018-12-10T12:08:11.570Z,76.50
2018-12-10T12:10:41.417Z,76.10
2018-12-10T12:13:10.725Z,76.80
2018-12-10T12:15:40.078Z,74.80
2018-12-10T12:18:09.498Z,76.30
2018-12-10T12:20:40.200Z,78.50
2018-12-10T12:23:09.566Z,77.90
2018-12-10T12:25:39.586Z,76.00
2018-12-10T12:28:09.395Z,76.30
2018-12-10T12:30:38.984Z,76.60
2018-12-10T12:33:08.611Z,76.20
2018-12-10T12:35:38.252Z,76.20
2018-12-10T12:38:07.896Z,76.20
2018-12-10T12:40:37.351Z,77.20
2018-12-10T12:43:08.598Z,76.70
2018-12-10T12:45:39.350Z,76.40
2018-12-10T12:48:08.645Z,76.40
2018-12-10T12:50:38.049Z,77.00
2018-12-10T12:53:07.575Z,77.90
2018-12-10T12:55:36.989Z,79.40
2018-12-10T12:58:06.289Z,79.60
2018-12-10T13:00:41.758Z,79.30
2018-12-10T13:03:07.187Z,79.20
2018-12-10T13:05:36.427Z,79.40
2018-12-10T13:08:05.706Z,78.00
2018-12-10T13:10:35.109Z,78.50
2018-12-10T13:13:04.845Z,78.60
2018-12-10T13:15:34.585Z,78.60
2018-12-10T13:18:03.917Z,79.20
2018-12-10T13:20:33.342Z,81.00
2018-12-10T13:23:02.961Z,82.60
2018-12-10T13:25:32.451Z,81.90
2018-12-10T13:28:01.962Z,81.80
2018-12-10T13:30:31.321Z,82.50
2018-12-10T13:33:00.923Z,83.70
2018-12-10T13:35:30.311Z,83.70
2018-12-10T13:37:59.814Z,83.20
2018-12-10T13:40:29.209Z,82.40
2018-12-10T13:42:58.666Z,83.20
2018-12-10T13:45:31.154Z,83.20
2018-12-10T13:47:59.324Z,83.60
2018-12-10T13:50:28.600Z,82.60
2018-12-10T13:52:58.055Z,82.40
2018-12-10T13:55:28.919Z,82.40
2018-12-10T13:57:58.345Z,80.60
2018-12-10T14:00:27.764Z,79.50
2018-12-10T14:02:59.807Z,78.60
2018-12-10T14:05:29.156Z,77.90
2018-12-10T14:07:58.642Z,78.40
2018-12-10T14:10:29.046Z,78.40
2018-12-10T14:12:58.856Z,78.50
2018-12-10T14:15:28.692Z,78.40
2018-12-10T14:17:58.052Z,77.40
2018-12-10T14:20:27.416Z,79.00
2018-12-10T14:22:56.743Z,79.00
2018-12-10T14:25:27.396Z,79.30
2018-12-10T14:27:56.672Z,79.70
2018-12-10T14:30:26.425Z,80.50
2018-12-10T14:32:55.895Z,81.50
2018-12-10T14:35:25.659Z,82.80
2018-12-10T14:37:54.972Z,84.10
2018-12-10T14:40:24.497Z,83.30
2018-12-10T14:42:56.576Z,83.90
2018-12-10T14:45:25.915Z,83.60
2018-12-10T14:47:56.841Z,83.00
2018-12-10T14:50:26.366Z,83.00
2018-12-10T14:52:56.099Z,82.20
2018-12-10T14:55:25.743Z,83.20
2018-12-10T14:57:55.305Z,83.50
2018-12-10T15:00:24.983Z,83.00
2018-12-10T15:02:54.571Z,83.70
2018-12-10T15:05:24.483Z,83.90
2018-12-10T15:07:54.157Z,82.90
2018-12-10T15:10:23.753Z,83.50
2018-12-10T15:12:53.055Z,83.50
2018-12-10T15:15:22.606Z,83.30
2018-12-10T15:17:53.155Z,82.70
2018-12-10T15:20:22.503Z,82.80
2018-12-10T15:22:52.070Z,82.10
2018-12-10T15:25:21.712Z,82.90
2018-12-10T15:27:51.284Z,82.00
2018-12-10T15:30:20.856Z,82.10
2018-12-10T15:32:50.638Z,81.90
2018-12-10T15:35:20.299Z,82.50
2018-12-10T15:37:49.577Z,82.00
2018-12-10T15:40:19.258Z,82.50
2018-12-10T15:42:48.876Z,82.40
2018-12-10T15:45:18.331Z,81.90
2018-12-10T15:47:48.310Z,82.00
2018-12-10T15:50:17.629Z,81.60
2018-12-10T15:52:47.095Z,81.40
2018-12-10T15:55:16.607Z,81.10
2018-12-10T15:57:45.903Z,81.20
2018-12-10T16:00:15.123Z,81.50
2018-12-10T16:02:44.649Z,80.60
2018-12-10T16:05:14.091Z,81.80
2018-12-10T16:07:44.679Z,81.10
2018-12-10T16:10:13.978Z,81.80
2018-12-10T16:12:43.417Z,82.30
2018-12-10T16:15:12.702Z,83.30
2018-12-10T16:17:42.320Z,84.20
2018-12-10T16:20:11.702Z,84.40
2018-12-10T16:22:41.565Z,84.50
2018-12-10T16:25:11.500Z,85.60
2018-12-10T16:27:41.019Z,86.60
2018-12-10T16:30:10.537Z,86.80
2018-12-10T16:32:40.412Z,86.70
2018-12-10T16:35:09.871Z,86.50
2018-12-10T16:37:39.478Z,86.60
2018-12-10T16:40:09.512Z,87.50
2018-12-10T16:42:38.891Z,87.30
2018-12-10T16:45:09.201Z,87.30
2018-12-10T16:47:38.720Z,87.60
2018-12-10T16:50:09.206Z,87.00
2018-12-10T16:52:38.688Z,87.70
2018-12-10T16:55:08.485Z,87.90
2018-12-10T16:57:38.577Z,89.10
2018-12-10T17:00:11.709Z,90.00
2018-12-10T17:02:42.296Z,90.00
2018-12-10T17:05:18.379Z,89.50
2018-12-10T17:07:47.685Z,90.00
2018-12-10T17:10:16.961Z,90.20
2018-12-10T17:12:46.260Z,90.50
2018-12-10T17:15:15.912Z,90.50
2018-12-10T17:17:45.446Z,90.70
2018-12-10T17:20:15.003Z,91.00
2018-12-10T17:22:44.473Z,90.90
2018-12-10T17:25:14.272Z,90.70
2018-12-10T17:27:44.382Z,91.20
2018-12-10T17:30:14.080Z,91.10
2018-12-10T17:32:43.778Z,91.20
2018-12-10T17:35:13.928Z,91.30
2018-12-10T17:37:43.573Z,91.50
2018-12-10T17:40:12.891Z,91.70
2018-12-10T17:42:42.424Z,91.90
2018-12-10T17:45:11.735Z,91.80
2018-12-10T17:47:41.084Z,91.90
2018-12-10T17:50:12.082Z,91.80
2018-12-10T17:52:41.737Z,91.80
2018-12-10T17:55:11.169Z,92.00
2018-12-10T17:57:41.743Z,91.90
2018-12-10T18:00:12.102Z,92.00
2018-12-10T18:02:41.760Z,91.70
2018-12-10T18:05:11.416Z,91.80
2018-12-10T18:07:41.328Z,91.50
2018-12-10T18:10:11.257Z,91.50
2018-12-10T18:12:40.934Z,92.00
2018-12-10T18:15:10.597Z,91.90
2018-12-10T18:17:40.257Z,92.00
2018-12-10T18:20:11.771Z,91.70
2018-12-10T18:22:41.536Z,91.60
2018-12-10T18:25:11.003Z,91.70
2018-12-10T18:27:40.611Z,91.40
2018-12-10T18:30:12.003Z,91.40
2018-12-10T18:32:42.084Z,91.40
2018-12-10T18:35:12.307Z,91.80
2018-12-10T18:37:41.907Z,91.70
2018-12-10T18:40:13.033Z,91.90
2018-12-10T18:42:42.923Z,92.10
2018-12-10T18:45:15.113Z,92.10
2018-12-10T18:47:45.288Z,91.80
2018-12-10T18:50:15.122Z,91.40
2018-12-10T18:52:44.974Z,91.30
2018-12-10T18:55:15.138Z,91.30
2018-12-10T18:57:44.674Z,91.50
2018-12-10T19:00:15.302Z,91.30
2018-12-10T19:02:45.419Z,91.70
2018-12-10T19:05:15.215Z,91.90
2018-12-10T19:07:44.906Z,92.20
2018-12-10T19:10:14.640Z,92.30
2018-12-10T19:12:45.008Z,92.10
2018-12-10T19:15:14.547Z,92.10
2018-12-10T19:17:44.122Z,92.40
2018-12-10T19:20:13.966Z,92.50
2018-12-10T19:22:43.783Z,92.80
2018-12-10T19:25:13.309Z,92.30
2018-12-10T19:27:43.146Z,92.30
2018-12-10T19:30:12.705Z,92.50
2018-12-10T19:32:42.721Z,92.60
2018-12-10T19:35:12.682Z,92.60
2018-12-10T19:37:42.434Z,92.60
2018-12-10T19:40:11.985Z,92.70
2018-12-10T19:42:41.941Z,92.50
2018-12-10T19:45:11.483Z,92.50
2018-12-10T19:47:41.435Z,92.30
2018-12-10T19:50:11.254Z,92.00
2018-12-10T19:52:40.984Z,91.90
2018-12-10T19:55:10.430Z,92.10
2018-12-10T19:57:40.294Z,92.10
2018-12-10T20:00:09.761Z,92.00
2018-12-10T20:02:39.361Z,91.80
2018-12-10T20:05:09.006Z,91.60
2018-12-10T20:07:38.560Z,91.90
2018-12-10T20:10:09.496Z,91.80
2018-12-10T20:12:40.454Z,91.60
2018-12-10T20:15:09.938Z,91.30
2018-12-10T20:17:39.696Z,91.20
2018-12-10T20:20:10.398Z,91.60
2018-12-10T20:22:40.321Z,91.30
2018-12-10T20:25:09.709Z,91.40
2018-12-10T20:27:39.504Z,91.30
2018-12-10T20:30:09.518Z,91.30
2018-12-10T20:32:39.875Z,91.20
2018-12-10T20:35:11.004Z,91.20
2018-12-10T20:37:40.738Z,91.20
2018-12-10T20:40:10.848Z,91.20
2018-12-10T20:42:40.876Z,91.20
2018-12-10T20:45:11.121Z,90.90
2018-12-10T20:47:41.078Z,91.00
2018-12-10T20:50:11.000Z,91.20
2018-12-10T20:52:40.645Z,91.10
2018-12-10T20:55:10.328Z,90.70
2018-12-10T20:57:41.582Z,90.70
2018-12-10T21:00:11.562Z,90.70
2018-12-10T21:02:41.283Z,90.50
2018-12-10T21:05:11.178Z,90.50
2018-12-10T21:07:41.182Z,90.60
2018-12-10T21:10:11.354Z,90.40
2018-12-10T21:12:41.265Z,90.40
2018-12-10T21:15:10.975Z,90.40
2018-12-10T21:17:40.755Z,90.60
2018-12-10T21:20:10.321Z,90.20
2018-12-10T21:22:41.169Z,89.70
2018-12-10T21:25:10.702Z,89.60
2018-12-10T21:27:40.400Z,89.10
2018-12-10T21:30:10.284Z,89.40
2018-12-10T21:32:39.886Z,88.70
2018-12-10T21:35:09.528Z,89.60
2018-12-10T21:37:39.542Z,90.00
2018-12-10T21:40:09.499Z,89.70
2018-12-10T21:42:39.490Z,90.00
2018-12-10T21:45:09.332Z,90.00
2018-12-10T21:47:39.750Z,89.80
2018-12-10T21:50:09.626Z,89.80
2018-12-10T21:52:39.119Z,90.00
2018-12-10T21:55:08.624Z,90.00
2018-12-10T21:57:38.126Z,90.20
2018-12-10T22:00:07.694Z,90.30
2018-12-10T22:02:37.540Z,90.10
2018-12-10T22:05:06.845Z,91.10
2018-12-10T22:07:37.061Z,90.80
2018-12-10T22:10:07.040Z,90.40
2018-12-10T22:12:36.448Z,90.30
2018-12-10T22:15:06.415Z,90.10
2018-12-10T22:17:36.246Z,90.20
2018-12-10T22:20:06.364Z,89.90
2018-12-10T22:22:36.161Z,90.00
2018-12-10T22:25:06.399Z,90.00
2018-12-10T22:27:36.011Z,90.20
2018-12-10T22:30:06.451Z,90.10
2018-12-10T22:32:37.017Z,90.40
2018-12-10T22:35:06.854Z,90.10
2018-12-10T22:37:36.605Z,89.80
2018-12-10T22:40:06.843Z,90.10
2018-12-10T22:42:36.485Z,90.30
2018-12-10T22:45:06.733Z,90.20
2018-12-10T22:47:36.218Z,90.10
2018-12-10T22:50:06.210Z,90.40
2018-12-10T22:52:35.762Z,90.60
2018-12-10T22:55:05.760Z,91.00
2018-12-10T22:57:35.282Z,90.90
2018-12-10T23:00:06.205Z,90.90
2018-12-10T23:02:37.786Z,91.10
2018-12-10T23:05:07.366Z,91.10
2018-12-10T23:07:38.859Z,91.20
2018-12-10T23:10:08.887Z,91.20
2018-12-10T23:12:38.572Z,91.20
2018-12-10T23:15:08.550Z,91.20
2018-12-10T23:17:38.827Z,91.20
2018-12-10T23:20:08.954Z,91.00
2018-12-10T23:22:39.066Z,90.90
2018-12-10T23:25:08.864Z,90.80
2018-12-10T23:27:38.623Z,91.00
2018-12-10T23:30:08.508Z,91.00
2018-12-10T23:32:39.404Z,90.90
2018-12-10T23:35:09.370Z,91.20
2018-12-10T23:37:39.104Z,90.90
2018-12-10T23:40:09.307Z,90.80
2018-12-10T23:42:43.295Z,90.90
2018-12-10T23:45:13.516Z,90.90
2018-12-10T23:47:43.863Z,91.20
2018-12-10T23:50:15.932Z,91.20
2018-12-10T23:52:46.294Z,91.20
2018-12-10T23:55:16.310Z,91.10
2018-12-10T23:58:02.224Z,91.00
